createdAt,value
2018-12-27T00:01:33.398Z,13.30
2018-12-27T00:04:02.694Z,11.90
2018-12-27T00:06:32.091Z,9.97
2018-12-27T00:09:01.431Z,13.63
2018-12-27T00:11:30.808Z,12.17
2018-12-27T00:14:00.139Z,11.83
2018-12-27T00:16:29.481Z,10.80
2018-12-27T00:18:58.884Z,13.33
2018-12-27T00:21:28.250Z,12.93
2018-12-27T00:23:57.656Z,14.87
2018-12-27T00:26:26.990Z,10.80
2018-12-27T00:28:56.424Z,13.67
2018-12-27T00:31:25.891Z,22.13
2018-12-27T00:33:55.409Z,10.93
2018-12-27T00:36:24.836Z,12.20
2018-12-27T00:38:54.325Z,10.80
2018-12-27T00:41:23.807Z,11.37
2018-12-27T00:43:53.270Z,13.30
2018-12-27T00:46:22.803Z,12.33
2018-12-27T00:48:52.301Z,12.80
2018-12-27T00:51:21.804Z,13.10
2018-12-27T00:53:51.361Z,10.87
2018-12-27T00:56:20.878Z,11.33
2018-12-27T00:58:50.402Z,12.20
2018-12-27T01:01:19.866Z,13.90
2018-12-27T01:03:49.370Z,11.80
2018-12-27T01:06:18.894Z,16.00
2018-12-27T01:08:48.386Z,12.43
2018-12-27T01:11:17.911Z,12.80
2018-12-27T01:13:47.395Z,12.13
2018-12-27T01:16:16.901Z,13.83
2018-12-27T01:18:46.360Z,13.23
2018-12-27T01:21:15.843Z,13.37
2018-12-27T01:23:45.312Z,11.60
2018-12-27T01:26:14.752Z,13.00
2018-12-27T01:28:44.225Z,15.53
2018-12-27T01:31:13.714Z,15.73
2018-12-27T01:33:43.337Z,13.27
2018-12-27T01:36:12.797Z,15.77
2018-12-27T01:38:42.254Z,15.53
2018-12-27T01:41:11.756Z,17.13
2018-12-27T01:43:41.189Z,14.23
2018-12-27T01:46:10.657Z,16.43
2018-12-27T01:48:40.177Z,15.83
2018-12-27T01:51:09.676Z,15.27
2018-12-27T01:53:39.163Z,14.00
2018-12-27T01:56:08.669Z,14.47
2018-12-27T01:58:38.214Z,12.93
2018-12-27T02:01:07.757Z,15.27
2018-12-27T02:03:37.207Z,17.03
2018-12-27T02:06:06.682Z,16.63
2018-12-27T02:08:36.160Z,14.80
2018-12-27T02:11:06.049Z,17.47
2018-12-27T02:13:35.570Z,13.57
2018-12-27T02:16:05.018Z,13.40
2018-12-27T02:18:34.504Z,13.73
2018-12-27T02:21:03.973Z,13.60
2018-12-27T02:23:33.481Z,12.97
2018-12-27T02:26:03.083Z,15.60
2018-12-27T02:28:32.560Z,13.63
2018-12-27T02:31:02.074Z,14.33
2018-12-27T02:33:35.579Z,16.93
2018-12-27T02:36:02.642Z,15.73
2018-12-27T02:38:32.155Z,14.40
2018-12-27T02:41:01.589Z,14.27
2018-12-27T02:43:31.078Z,15.27
2018-12-27T02:46:00.568Z,15.33
2018-12-27T02:48:30.047Z,14.53
2018-12-27T02:50:59.497Z,14.17
2018-12-27T02:53:29.014Z,16.40
2018-12-27T02:55:58.485Z,12.27
2018-12-27T02:58:27.983Z,12.73
2018-12-27T03:00:57.474Z,12.63
2018-12-27T03:03:26.974Z,14.67
2018-12-27T03:05:56.500Z,16.50
2018-12-27T03:08:26.005Z,15.10
2018-12-27T03:10:55.614Z,14.60
2018-12-27T03:13:25.134Z,13.70
2018-12-27T03:15:54.619Z,13.77
2018-12-27T03:18:24.089Z,17.33
2018-12-27T03:20:53.581Z,13.90
2018-12-27T03:23:23.053Z,13.37
2018-12-27T03:25:52.545Z,13.33
2018-12-27T03:28:22.051Z,14.47
2018-12-27T03:30:51.549Z,13.40
2018-12-27T03:33:21.059Z,16.83
2018-12-27T03:35:50.532Z,14.70
2018-12-27T03:38:19.980Z,14.70
2018-12-27T03:40:49.509Z,14.33
2018-12-27T03:43:21.458Z,15.00
2018-12-27T03:45:50.938Z,15.07
2018-12-27T03:48:20.378Z,15.97
2018-12-27T03:50:49.857Z,14.13
2018-12-27T03:53:19.314Z,15.47
2018-12-27T03:55:48.767Z,12.63
2018-12-27T03:58:18.259Z,15.43
2018-12-27T04:00:47.754Z,14.10
2018-12-27T04:03:17.222Z,14.27
2018-12-27T04:05:46.724Z,13.77
2018-12-27T04:08:16.230Z,12.70
2018-12-27T04:10:45.707Z,13.70
2018-12-27T04:13:15.236Z,14.40
2018-12-27T04:15:44.540Z,15.23
2018-12-27T04:18:13.894Z,13.87
2018-12-27T04:20:43.298Z,13.07
2018-12-27T04:23:12.630Z,14.53
2018-12-27T04:25:42.204Z,13.17
2018-12-27T04:28:11.543Z,13.50
2018-12-27T04:30:41.322Z,15.23
2018-12-27T04:33:16.004Z,12.83
2018-12-27T04:35:47.034Z,13.97
2018-12-27T04:38:16.361Z,14.30
2018-12-27T04:40:45.747Z,14.20
2018-12-27T04:43:15.354Z,14.93
2018-12-27T04:45:44.689Z,14.43
2018-12-27T04:48:14.033Z,14.60
2018-12-27T04:50:43.370Z,17.33
2018-12-27T04:53:12.772Z,15.60
2018-12-27T04:55:42.127Z,13.23
2018-12-27T04:58:11.535Z,12.97
2018-12-27T05:00:40.988Z,12.23
2018-12-27T05:03:10.335Z,11.03
2018-12-27T05:05:39.666Z,16.93
2018-12-27T05:08:09.073Z,12.23
2018-12-27T05:10:38.449Z,12.23
2018-12-27T05:13:07.786Z,11.10
2018-12-27T05:15:37.155Z,12.87
2018-12-27T05:18:06.484Z,11.67
2018-12-27T05:20:35.883Z,12.07
2018-12-27T05:23:05.292Z,14.20
2018-12-27T05:25:34.669Z,12.77
2018-12-27T05:28:04.021Z,11.43
2018-12-27T05:30:33.390Z,14.30
2018-12-27T05:33:02.739Z,11.17
2018-12-27T05:35:32.182Z,11.83
2018-12-27T05:38:01.547Z,13.97
2018-12-27T05:40:30.907Z,12.57
2018-12-27T05:43:00.231Z,11.87
2018-12-27T05:45:29.602Z,11.83
2018-12-27T05:47:58.990Z,12.43
2018-12-27T05:50:28.305Z,12.97
2018-12-27T05:53:00.892Z,12.10
2018-12-27T05:55:34.218Z,14.67
2018-12-27T05:58:01.331Z,9.87
2018-12-27T06:00:30.705Z,11.33
2018-12-27T06:03:00.135Z,10.77
2018-12-27T06:05:29.434Z,9.97
2018-12-27T06:07:58.785Z,13.83
2018-12-27T06:10:28.215Z,9.50
2018-12-27T06:12:57.597Z,9.80
2018-12-27T06:15:26.963Z,10.80
2018-12-27T06:17:56.319Z,8.60
2018-12-27T06:20:25.650Z,9.87
2018-12-27T06:22:55.053Z,11.27
2018-12-27T06:25:24.485Z,12.50
2018-12-27T06:27:53.887Z,9.83
2018-12-27T06:30:23.268Z,9.35
2018-12-27T06:32:52.635Z,9.07
2018-12-27T06:35:22.125Z,10.10
2018-12-27T06:37:51.463Z,9.23
2018-12-27T06:40:20.893Z,7.50
2018-12-27T06:42:50.247Z,8.17
2018-12-27T06:45:19.593Z,8.27
2018-12-27T06:47:48.948Z,8.07
2018-12-27T06:50:18.352Z,7.58
2018-12-27T06:52:47.673Z,10.67
2018-12-27T06:55:17.056Z,13.13
2018-12-27T06:57:46.460Z,9.40
2018-12-27T07:00:15.893Z,10.63
2018-12-27T07:02:45.382Z,7.97
2018-12-27T07:05:15.613Z,7.53
2018-12-27T07:07:44.970Z,8.90
2018-12-27T07:10:14.406Z,8.53
2018-12-27T07:12:43.741Z,9.33
2018-12-27T07:15:13.125Z,10.60
2018-12-27T07:17:42.457Z,8.07
2018-12-27T07:20:11.834Z,9.43
2018-12-27T07:22:41.203Z,8.10
2018-12-27T07:30:21.968Z,7.58
2018-12-27T07:32:51.418Z,9.83
2018-12-27T07:35:20.743Z,9.60
2018-12-27T07:37:52.915Z,11.75
2018-12-27T07:40:22.292Z,9.15
2018-12-27T07:42:51.591Z,9.63
2018-12-27T07:45:20.955Z,8.23
2018-12-27T07:47:50.386Z,9.00
2018-12-27T07:50:19.712Z,8.60
2018-12-27T07:52:49.088Z,8.53
2018-12-27T07:55:18.478Z,9.78
2018-12-27T07:57:47.912Z,7.70
2018-12-27T08:00:17.269Z,8.68
2018-12-27T08:02:46.619Z,8.80
2018-12-27T08:05:15.956Z,8.67
2018-12-27T08:07:45.303Z,8.57
2018-12-27T08:10:14.650Z,10.47
2018-12-27T08:12:44.103Z,8.13
2018-12-27T08:15:13.435Z,9.20
2018-12-27T08:17:42.830Z,10.40
2018-12-27T08:20:12.233Z,9.55
2018-12-27T08:22:41.598Z,10.55
2018-12-27T08:25:10.946Z,11.90
2018-12-27T08:27:40.296Z,8.43
2018-12-27T08:30:09.669Z,10.75
2018-12-27T08:32:38.999Z,8.63
2018-12-27T08:35:11.677Z,6.92
2018-12-27T08:37:39.488Z,7.20
2018-12-27T08:40:08.867Z,8.93
2018-12-27T08:42:38.394Z,8.23
2018-12-27T08:45:07.806Z,6.77
2018-12-27T08:53:10.252Z,9.07
2018-12-27T08:55:39.620Z,10.15
2018-12-27T08:58:08.953Z,11.68
2018-12-27T09:00:38.323Z,11.00
2018-12-27T09:03:07.655Z,8.20
2018-12-27T09:05:37.000Z,9.18
2018-12-27T09:08:06.403Z,8.30
2018-12-27T09:10:35.993Z,8.80
2018-12-27T09:13:05.372Z,8.43
2018-12-27T09:15:34.773Z,7.83
2018-12-27T09:18:04.184Z,10.90
2018-12-27T09:20:33.693Z,9.40
2018-12-27T09:23:03.103Z,8.20
2018-12-27T09:25:32.459Z,7.75
2018-12-27T09:28:01.899Z,8.85
2018-12-27T09:30:31.350Z,11.35
2018-12-27T09:33:00.738Z,9.40
2018-12-27T09:35:30.063Z,10.18
2018-12-27T09:37:59.465Z,10.50
2018-12-27T09:40:29.021Z,9.28
2018-12-27T09:42:58.388Z,10.57
2018-12-27T09:45:27.718Z,12.73
2018-12-27T09:47:57.090Z,10.05
2018-12-27T09:50:26.443Z,11.67
2018-12-27T09:52:55.814Z,10.57
2018-12-27T09:55:25.163Z,12.93
2018-12-27T09:57:54.705Z,9.47
2018-12-27T10:00:24.075Z,10.47
2018-12-27T10:02:53.426Z,10.93
2018-12-27T10:05:22.779Z,8.17
2018-12-27T10:07:57.439Z,8.80
2018-12-27T10:10:23.309Z,8.73
2018-12-27T10:12:52.678Z,8.73
2018-12-27T10:15:22.095Z,9.43
2018-12-27T10:17:51.449Z,11.33
2018-12-27T10:20:20.846Z,11.23
2018-12-27T10:22:50.287Z,9.73
2018-12-27T10:25:21.933Z,14.50
2018-12-27T10:27:51.372Z,10.33
2018-12-27T10:30:20.710Z,8.37
2018-12-27T10:32:50.127Z,7.90
2018-12-27T10:35:19.440Z,9.47
2018-12-27T10:37:48.876Z,10.10
2018-12-27T10:40:18.241Z,8.93
2018-12-27T10:42:47.578Z,8.77
2018-12-27T10:45:16.965Z,8.93
2018-12-27T10:47:46.349Z,10.27
2018-12-27T10:50:15.729Z,11.17
2018-12-27T10:52:45.107Z,13.73
2018-12-27T10:55:14.536Z,14.17
2018-12-27T10:57:43.890Z,12.40
2018-12-27T11:00:13.395Z,12.28
2018-12-27T11:02:42.773Z,13.60
2018-12-27T11:05:12.127Z,14.63
2018-12-27T11:07:41.506Z,14.13
2018-12-27T11:10:11.496Z,12.40
2018-12-27T11:12:40.892Z,10.87
2018-12-27T11:15:10.284Z,11.30
2018-12-27T11:17:39.666Z,11.93
2018-12-27T11:20:09.042Z,8.73
2018-12-27T11:22:38.371Z,10.43
2018-12-27T11:25:07.696Z,12.17
2018-12-27T11:27:37.081Z,11.83
2018-12-27T11:30:07.076Z,13.40
2018-12-27T11:32:36.401Z,10.93
2018-12-27T11:35:05.800Z,11.97
2018-12-27T11:37:35.258Z,10.70
2018-12-27T11:40:04.908Z,10.43
2018-12-27T11:42:34.237Z,11.10
2018-12-27T11:45:03.619Z,11.57
2018-12-27T11:47:32.947Z,9.57
2018-12-27T11:50:02.412Z,9.67
2018-12-27T11:52:31.853Z,10.30
2018-12-27T11:55:01.253Z,12.77
2018-12-27T11:57:30.630Z,10.73
2018-12-27T11:59:59.958Z,11.23
2018-12-27T12:02:31.261Z,11.60
2018-12-27T12:05:00.484Z,10.40
2018-12-27T12:07:29.830Z,10.17
2018-12-27T12:09:59.167Z,13.20
2018-12-27T12:12:28.573Z,11.50
2018-12-27T12:14:57.936Z,10.77
2018-12-27T12:17:27.316Z,10.53
2018-12-27T12:19:56.715Z,11.87
2018-12-27T12:22:26.125Z,11.47
2018-12-27T12:24:55.608Z,13.40
2018-12-27T12:27:24.968Z,12.87
2018-12-27T12:29:54.382Z,12.60
2018-12-27T12:32:23.952Z,11.17
2018-12-27T12:34:53.988Z,21.80
2018-12-27T12:37:23.976Z,124.53
2018-12-27T12:39:53.463Z,56.87
2018-12-27T12:42:33.029Z,50.37
2018-12-27T12:44:54.932Z,15.40
2018-12-27T12:47:24.573Z,13.30
2018-12-27T12:49:54.104Z,17.13
2018-12-27T12:52:23.656Z,16.00
2018-12-27T12:54:53.174Z,15.73
2018-12-27T12:57:22.620Z,22.37
2018-12-27T12:59:53.241Z,10.30
2018-12-27T13:02:22.721Z,26.33
2018-12-27T13:04:52.222Z,19.90
2018-12-27T13:07:21.738Z,9.57
2018-12-27T13:09:51.273Z,12.53
2018-12-27T13:12:20.874Z,13.97
2018-12-27T13:14:50.246Z,12.33
2018-12-27T13:17:20.061Z,13.10
2018-12-27T13:19:49.677Z,10.87
2018-12-27T13:22:19.205Z,10.23
2018-12-27T13:24:48.727Z,12.93
2018-12-27T13:27:18.340Z,11.83
2018-12-27T13:29:47.873Z,11.60
2018-12-27T13:32:17.534Z,9.73
2018-12-27T13:34:47.210Z,11.03
2018-12-27T13:37:18.305Z,10.17
2018-12-27T13:39:47.861Z,13.73
2018-12-27T13:42:17.450Z,10.57
2018-12-27T13:44:46.909Z,10.07
2018-12-27T13:47:16.432Z,10.53
2018-12-27T13:49:46.284Z,10.67
2018-12-27T13:52:15.845Z,8.50
2018-12-27T13:54:45.333Z,9.80
2018-12-27T13:57:14.882Z,9.63
2018-12-27T13:59:46.159Z,9.50
2018-12-27T14:02:15.745Z,10.00
2018-12-27T14:04:45.401Z,11.17
2018-12-27T14:07:15.214Z,10.57
2018-12-27T14:09:44.840Z,11.60
2018-12-27T14:12:15.684Z,11.23
2018-12-27T14:14:45.190Z,9.07
2018-12-27T14:17:14.689Z,10.00
2018-12-27T14:19:46.726Z,10.63
2018-12-27T14:22:16.550Z,10.20
2018-12-27T14:24:46.071Z,11.03
2018-12-27T14:27:15.657Z,10.80
2018-12-27T14:29:46.919Z,10.70
2018-12-27T14:32:16.471Z,11.30
2018-12-27T14:34:49.197Z,10.03
2018-12-27T14:37:18.798Z,12.53
2018-12-27T14:39:48.334Z,12.33
2018-12-27T14:42:17.864Z,11.27
2018-12-27T14:44:47.425Z,11.07
2018-12-27T14:47:16.946Z,10.53
2018-12-27T14:49:46.351Z,10.43
2018-12-27T14:52:15.755Z,15.53
2018-12-27T14:54:45.151Z,12.30
2018-12-27T14:57:14.569Z,11.53
2018-12-27T14:59:44.111Z,13.90
2018-12-27T15:02:13.510Z,12.97
2018-12-27T15:04:42.981Z,14.53
2018-12-27T15:07:12.353Z,13.90
2018-12-27T15:09:41.877Z,13.17
2018-12-27T15:12:11.282Z,12.90
2018-12-27T15:14:43.525Z,12.17
2018-12-27T15:17:12.864Z,10.53
2018-12-27T15:19:42.228Z,13.83
2018-12-27T15:22:12.011Z,12.53
2018-12-27T15:24:41.443Z,11.70
2018-12-27T15:27:10.841Z,13.40
2018-12-27T15:29:40.243Z,11.90
2018-12-27T15:32:09.720Z,15.97
2018-12-27T15:34:39.086Z,12.70
2018-12-27T15:37:08.506Z,11.33
2018-12-27T15:39:38.191Z,11.93
2018-12-27T15:42:07.563Z,11.63
2018-12-27T15:44:36.899Z,13.97
2018-12-27T15:47:06.713Z,12.03
2018-12-27T15:49:36.079Z,10.50
2018-12-27T15:52:05.673Z,11.33
2018-12-27T15:54:35.328Z,13.93
2018-12-27T15:57:04.717Z,13.87
2018-12-27T15:59:34.107Z,20.50
2018-12-27T16:02:03.652Z,40.13
2018-12-27T16:04:33.043Z,25.77
2018-12-27T16:07:02.565Z,65.13
2018-12-27T16:09:31.918Z,39.83
2018-12-27T16:12:01.321Z,55.50
2018-12-27T16:14:30.790Z,83.80
2018-12-27T16:17:03.201Z,33.80
2018-12-27T16:19:32.608Z,37.60
2018-12-27T16:22:02.055Z,37.77
2018-12-27T16:24:31.456Z,30.13
2018-12-27T16:27:00.863Z,35.10
2018-12-27T16:29:30.355Z,31.37
2018-12-27T16:31:59.978Z,24.90
2018-12-27T16:34:29.457Z,27.10
2018-12-27T16:36:58.957Z,43.80
2018-12-27T16:39:28.489Z,46.53
2018-12-27T16:41:58.313Z,41.17
2018-12-27T16:44:28.390Z,35.30
2018-12-27T16:46:58.111Z,50.87
2018-12-27T16:49:27.488Z,47.23
2018-12-27T16:51:56.996Z,38.67
2018-12-27T16:54:26.936Z,38.83
2018-12-27T16:56:56.776Z,38.97
2018-12-27T16:59:26.501Z,32.67
2018-12-27T17:01:56.199Z,41.30
2018-12-27T17:04:25.921Z,43.27
2018-12-27T17:06:55.468Z,42.30
2018-12-27T17:09:24.973Z,46.10
2018-12-27T17:11:54.424Z,40.20
2018-12-27T17:14:23.898Z,41.33
2018-12-27T17:16:53.323Z,52.03
2018-12-27T17:19:22.782Z,48.20
2018-12-27T17:21:52.415Z,50.73
2018-12-27T17:24:21.887Z,47.40
2018-12-27T17:26:51.439Z,59.43
2018-12-27T17:29:20.926Z,53.63
2018-12-27T17:31:50.327Z,66.73
2018-12-27T17:34:19.760Z,62.37
2018-12-27T17:36:49.115Z,58.20
2018-12-27T17:39:18.519Z,64.80
2018-12-27T17:41:47.884Z,61.87
2018-12-27T17:44:17.314Z,59.53
2018-12-27T17:46:46.641Z,66.10
2018-12-27T17:49:16.033Z,62.83
2018-12-27T17:51:45.351Z,69.67
2018-12-27T17:54:14.724Z,72.93
2018-12-27T17:56:44.054Z,57.00
2018-12-27T17:59:13.400Z,63.37
2018-12-27T18:01:42.800Z,46.07
2018-12-27T18:04:12.204Z,37.40
2018-12-27T18:06:41.638Z,35.27
2018-12-27T18:09:10.985Z,38.77
2018-12-27T18:11:40.388Z,41.57
2018-12-27T18:14:09.816Z,48.60
2018-12-27T18:16:39.303Z,46.67
2018-12-27T18:19:08.727Z,48.07
2018-12-27T18:21:38.113Z,59.57
2018-12-27T18:24:07.516Z,53.57
2018-12-27T18:26:36.917Z,71.80
2018-12-27T18:29:06.308Z,72.33
2018-12-27T18:31:38.254Z,67.50
2018-12-27T18:34:07.583Z,60.80
2018-12-27T18:36:37.089Z,68.53
2018-12-27T18:39:10.041Z,66.50
2018-12-27T18:41:39.377Z,58.67
2018-12-27T18:44:08.781Z,63.97
2018-12-27T18:46:38.159Z,88.00
2018-12-27T18:49:07.513Z,78.47
2018-12-27T18:51:36.870Z,69.07
2018-12-27T18:54:06.192Z,64.10
2018-12-27T18:56:35.597Z,72.23
2018-12-27T18:59:04.978Z,75.77
2018-12-27T19:01:34.570Z,63.13
2018-12-27T19:04:03.896Z,70.57
2018-12-27T19:06:33.298Z,69.87
2018-12-27T19:09:02.662Z,67.40
2018-12-27T19:12:07.134Z,59.47
2018-12-27T19:14:36.507Z,52.87
2018-12-27T19:17:06.109Z,46.23
2018-12-27T19:19:35.444Z,50.03
2018-12-27T19:22:32.724Z,46.40
2018-12-27T19:25:02.114Z,49.13
2018-12-27T19:27:31.508Z,46.33
2018-12-27T19:30:00.913Z,50.67
2018-12-27T19:32:31.999Z,50.90
2018-12-27T19:35:01.517Z,49.47
2018-12-27T19:37:31.172Z,52.65
2018-12-27T19:40:00.592Z,47.53
2018-12-27T19:42:30.079Z,51.92
2018-12-27T19:44:59.513Z,57.73
2018-12-27T19:47:28.996Z,56.50
2018-12-27T19:49:58.476Z,56.57
2018-12-27T19:52:27.787Z,52.13
2018-12-27T19:54:57.296Z,48.95
2018-12-27T19:57:26.820Z,42.35
2018-12-27T19:59:56.226Z,44.00
2018-12-27T20:02:25.658Z,32.48
2018-12-27T20:04:57.758Z,32.38
2018-12-27T20:07:27.079Z,35.70
2018-12-27T20:09:56.400Z,35.50
2018-12-27T20:12:25.735Z,35.85
2018-12-27T20:14:55.116Z,36.98
2018-12-27T20:17:24.896Z,38.67
2018-12-27T20:19:54.297Z,41.77
2018-12-27T20:22:23.669Z,43.35
2018-12-27T20:24:53.032Z,43.37
2018-12-27T20:27:22.382Z,44.10
2018-12-27T20:29:51.753Z,49.48
2018-12-27T20:32:21.068Z,51.53
2018-12-27T20:34:50.473Z,52.65
2018-12-27T20:37:19.966Z,46.65
2018-12-27T20:39:49.456Z,46.15
2018-12-27T20:42:18.842Z,46.60
2018-12-27T20:44:48.152Z,46.93
2018-12-27T20:47:17.500Z,46.07
2018-12-27T20:49:47.034Z,47.78
2018-12-27T20:52:16.392Z,40.38
2018-12-27T20:54:45.820Z,33.33
2018-12-27T20:57:15.212Z,34.27
2018-12-27T20:59:44.589Z,29.80
2018-12-27T21:02:13.966Z,32.25
2018-12-27T21:04:43.335Z,29.10
2018-12-27T21:07:12.732Z,33.30
2018-12-27T21:09:42.224Z,41.30
2018-12-27T21:12:11.694Z,40.33
2018-12-27T21:14:41.143Z,38.80
2018-12-27T21:17:10.533Z,40.52
2018-12-27T21:19:40.255Z,40.97
2018-12-27T21:22:09.873Z,43.83
2018-12-27T21:24:39.348Z,41.55
2018-12-27T21:27:08.823Z,36.20
2018-12-27T21:29:38.253Z,31.02
2018-12-27T21:32:07.634Z,29.23
2018-12-27T21:34:37.193Z,29.57
2018-12-27T21:37:06.724Z,34.60
2018-12-27T21:39:36.194Z,31.48
2018-12-27T21:42:05.554Z,81.63
2018-12-27T21:44:34.948Z,49.08
2018-12-27T21:47:04.434Z,43.02
2018-12-27T21:49:33.783Z,33.60
2018-12-27T21:52:03.147Z,37.23
2018-12-27T21:54:33.936Z,39.75
2018-12-27T21:57:03.426Z,38.78
2018-12-27T21:59:32.781Z,36.70
2018-12-27T22:02:02.252Z,38.70
2018-12-27T22:04:31.615Z,37.33
2018-12-27T22:07:00.962Z,37.10
2018-12-27T22:09:30.311Z,36.00
2018-12-27T22:11:59.714Z,33.48
2018-12-27T22:14:29.100Z,37.38
2018-12-27T22:16:58.498Z,41.13
2018-12-27T22:19:27.899Z,41.63
2018-12-27T22:21:57.255Z,35.70
2018-12-27T22:24:26.620Z,39.00
2018-12-27T22:26:56.042Z,35.17
2018-12-27T22:29:25.378Z,43.10
2018-12-27T22:31:54.738Z,41.60
2018-12-27T22:34:24.091Z,40.08
2018-12-27T22:36:53.578Z,43.05
2018-12-27T22:39:24.159Z,40.92
2018-12-27T22:41:53.504Z,34.13
2018-12-27T22:44:26.346Z,32.00
2018-12-27T22:46:55.716Z,32.23
2018-12-27T22:49:25.137Z,33.63
2018-12-27T22:51:57.583Z,35.23
2018-12-27T22:54:26.977Z,37.00
2018-12-27T22:56:56.327Z,35.28
2018-12-27T22:59:25.805Z,37.25
2018-12-27T23:01:55.205Z,32.33
2018-12-27T23:04:24.572Z,33.60
2018-12-27T23:06:53.953Z,33.83
2018-12-27T23:09:23.274Z,34.78
2018-12-27T23:11:52.665Z,32.88
2018-12-27T23:14:22.058Z,29.25
2018-12-27T23:16:51.446Z,31.20
2018-12-27T23:19:20.809Z,32.88
2018-12-27T23:21:50.192Z,32.95
2018-12-27T23:24:19.551Z,28.02
2018-12-27T23:26:48.890Z,25.68
2018-12-27T23:29:18.244Z,28.85
2018-12-27T23:31:47.547Z,25.88
2018-12-27T23:34:16.897Z,28.98
2018-12-27T23:36:46.240Z,27.00
2018-12-27T23:39:15.575Z,23.30
2018-12-27T23:41:44.937Z,24.30
2018-12-27T23:44:14.286Z,23.47
2018-12-27T23:46:43.691Z,22.15
2018-12-27T23:49:13.023Z,23.98
2018-12-27T23:51:42.350Z,25.72
2018-12-27T23:54:11.766Z,23.87
2018-12-27T23:56:41.135Z,22.85
2018-12-27T23:59:10.489Z,23.32
